Time;durP1;ratioP1;P1;durP2;ratioP2;P2;SDS_P1;SDS_P2;PMS_P1;PMS_P2;Temp;Humidity;BMP_temperature;BMP_pressure;BME280_temperature;BME280_humidity;BME280_pressure;Samples;Min_cycle;Max_cycle;Signal;HPM_P1;HPM_P2
2023/05/23 00:02:14;;;;;;;0.20;0.20;;;14.50;99.90;;;;;;5044193;28;20050;-79
2023/05/23 00:04:45;;;;;;;0.20;0.20;;;14.50;99.90;;;;;;5066333;28;20515;-77
2023/05/23 00:07:11;;;;;;;0.20;0.20;;;14.50;99.90;;;;;;5067738;28;20070;-78
2023/05/23 00:09:36;;;;;;;0.20;0.20;;;15.50;99.90;;;;;;5066750;28;20392;-77
2023/05/23 00:12:02;;;;;;;0.20;0.20;;;14.50;99.90;;;;;;5066685;28;20086;-79
2023/05/23 00:14:46;;;;;;;0.20;0.20;;;14.50;99.90;;;;;;5071314;28;20492;-78
2023/05/23 00:17:30;;;;;;;0.20;0.20;;;14.40;99.90;;;;;;5049713;28;20496;-77
2023/05/23 00:20:14;;;;;;;0.20;0.20;;;15.00;99.90;;;;;;5080230;28;20071;-78
2023/05/23 00:22:49;;;;;;;0.20;0.20;;;14.40;99.90;;;;;;5064906;28;20473;-77
2023/05/23 00:25:22;;;;;;;0.20;0.20;;;14.30;99.90;;;;;;5072235;28;20044;-78
2023/05/23 00:28:07;;;;;;;0.10;0.10;;;14.60;99.90;;;;;;5051034;28;20139;-78
2023/05/23 00:30:48;;;;;;;0.10;0.10;;;14.60;99.90;;;;;;5065414;28;20044;-78
2023/05/23 00:33:16;;;;;;;0.20;0.20;;;14.40;99.90;;;;;;5051643;28;20048;-78
2023/05/23 00:35:54;;;;;;;0.20;0.20;;;14.60;99.90;;;;;;5052565;28;20063;-77
2023/05/23 00:38:20;;;;;;;0.20;0.20;;;14.20;99.90;;;;;;5065438;28;20075;-77
2023/05/23 00:40:47;;;;;;;0.20;0.20;;;14.20;99.90;;;;;;5078011;28;20571;-78
2023/05/23 00:43:15;;;;;;;0.15;0.15;;;14.20;99.90;;;;;;5060752;22;20056;-77
2023/05/23 00:45:41;;;;;;;0.20;0.20;;;14.20;99.90;;;;;;5040254;28;20064;-77
2023/05/23 00:48:07;;;;;;;0.20;0.20;;;14.20;99.90;;;;;;5046980;28;20037;-78
2023/05/23 00:50:36;;;;;;;0.20;0.20;;;12.80;99.90;;;;;;5042552;28;20910;-78
2023/05/23 00:53:02;;;;;;;0.20;0.20;;;14.20;99.90;;;;;;5041489;28;20392;-78
2023/05/23 00:55:29;;;;;;;0.20;0.20;;;14.20;99.90;;;;;;5064677;28;20052;-78
2023/05/23 00:58:01;;;;;;;0.10;0.10;;;14.10;99.90;;;;;;5048196;28;20075;-78
2023/05/23 01:00:27;;;;;;;0.20;0.20;;;14.10;99.90;;;;;;5105779;22;20532;-77
2023/05/23 01:02:55;;;;;;;0.20;0.20;;;14.10;99.90;;;;;;5045148;28;20041;-78
2023/05/23 01:05:24;;;;;;;0.20;0.20;;;14.10;99.90;;;;;;5049307;28;20076;-79
2023/05/23 01:07:50;;;;;;;0.20;0.20;;;14.10;99.90;;;;;;5047669;28;20764;-80
2023/05/23 01:10:20;;;;;;;0.20;0.20;;;14.10;99.90;;;;;;5063415;28;20040;-77
2023/05/23 01:13:08;;;;;;;0.20;0.20;;;14.10;99.90;;;;;;5046229;28;20404;-80
2023/05/23 01:16:18;;;;;;;0.10;0.10;;;14.00;99.90;;;;;;5049998;28;20057;-77
2023/05/23 01:18:56;;;;;;;0.15;0.15;;;14.00;99.90;;;;;;5048532;28;20040;-78
2023/05/23 01:21:35;;;;;;;0.20;0.20;;;14.00;99.90;;;;;;5062975;28;20060;-78
2023/05/23 01:24:20;;;;;;;0.20;0.20;;;14.00;99.90;;;;;;5049047;28;20174;-76
2023/05/23 01:27:26;;;;;;;0.20;0.20;;;14.00;99.90;;;;;;5064991;28;20500;-78
2023/05/23 01:29:56;;;;;;;0.20;0.20;;;14.00;99.90;;;;;;5061849;28;20377;-77
2023/05/23 01:32:27;;;;;;;0.20;0.20;;;13.90;99.90;;;;;;5048341;28;20478;-78
2023/05/23 01:34:56;;;;;;;0.20;0.20;;;13.90;99.90;;;;;;5069894;28;20044;-77
2023/05/23 01:37:28;;;;;;;0.20;0.20;;;13.90;99.90;;;;;;5067518;28;20572;-78
2023/05/23 01:40:00;;;;;;;0.10;0.10;;;13.80;99.90;;;;;;5048039;28;20045;-78
2023/05/23 01:42:27;;;;;;;0.20;0.20;;;13.80;99.90;;;;;;5068692;28;20047;-78
2023/05/23 01:44:52;;;;;;;0.20;0.20;;;13.70;99.90;;;;;;5058435;28;20306;-77
2023/05/23 01:47:20;;;;;;;0.20;0.20;;;13.60;99.90;;;;;;5050879;28;20047;-77
2023/05/23 01:49:47;;;;;;;0.20;0.20;;;13.60;99.90;;;;;;5049308;28;20037;-78
2023/05/23 01:52:14;;;;;;;0.20;0.20;;;13.60;99.90;;;;;;5072354;28;20032;-77
2023/05/23 01:54:42;;;;;;;0.20;0.20;;;13.60;99.90;;;;;;5046145;28;20123;-78
2023/05/23 01:57:11;;;;;;;0.20;0.20;;;13.50;99.90;;;;;;5051716;28;20106;-78
2023/05/23 01:59:40;;;;;;;0.20;0.20;;;13.50;99.90;;;;;;5049147;28;20422;-78
2023/05/23 02:02:05;;;;;;;0.20;0.20;;;13.50;99.90;;;;;;5069210;28;20079;-76
2023/05/23 02:04:31;;;;;;;0.20;0.20;;;13.40;99.90;;;;;;5051017;28;20629;-78
2023/05/23 02:06:57;;;;;;;0.17;0.17;;;13.30;99.90;;;;;;5070307;28;20411;-78
2023/05/23 02:09:22;;;;;;;0.20;0.20;;;13.40;99.90;;;;;;5050770;28;20036;-78
2023/05/23 02:11:48;;;;;;;0.20;0.20;;;13.30;99.90;;;;;;5051261;28;20043;-76
2023/05/23 02:14:13;;;;;;;0.20;0.20;;;13.30;99.90;;;;;;5041667;28;20040;-78
2023/05/23 02:16:39;;;;;;;0.20;0.20;;;13.20;99.90;;;;;;5046491;28;20126;-81
2023/05/23 02:19:08;;;;;;;0.20;0.20;;;13.20;99.90;;;;;;5060685;28;20542;-77
2023/05/23 02:21:34;;;;;;;0.20;0.20;;;13.20;99.90;;;;;;5056306;28;20047;-78
2023/05/23 02:23:59;;;;;;;0.15;0.15;;;13.10;99.90;;;;;;5051423;28;20603;-76
2023/05/23 02:26:26;;;;;;;0.20;0.20;;;13.10;99.90;;;;;;5070212;28;20037;-76
2023/05/23 02:28:55;;;;;;;0.20;0.20;;;13.10;99.90;;;;;;5053000;28;20040;-77
2023/05/23 02:31:23;;;;;;;0.20;0.20;;;13.10;99.90;;;;;;5064709;28;20037;-78
2023/05/23 02:33:48;;;;;;;0.20;0.20;;;13.10;99.90;;;;;;5073707;28;20041;-79
2023/05/23 02:36:14;;;;;;;0.20;0.20;;;13.10;99.90;;;;;;5108374;22;20101;-79
2023/05/23 02:38:42;;;;;;;0.20;0.20;;;13.00;99.90;;;;;;5107221;28;20035;-77
2023/05/23 02:41:08;;;;;;;0.20;0.20;;;13.00;99.90;;;;;;5092706;28;20087;-77
2023/05/23 02:43:34;;;;;;;0.20;0.20;;;13.00;99.90;;;;;;5104205;28;20068;-77
2023/05/23 02:45:59;;;;;;;0.10;0.10;;;12.90;99.90;;;;;;5100690;27;20035;-77
2023/05/23 02:48:25;;;;;;;0.10;0.10;;;12.90;99.90;;;;;;5121058;27;20039;-78
2023/05/23 02:50:51;;;;;;;0.10;0.10;;;12.90;99.90;;;;;;5103659;27;20130;-77
2023/05/23 02:53:17;;;;;;;0.10;0.10;;;12.70;99.90;;;;;;5094247;28;20042;-77
2023/05/23 02:55:42;;;;;;;0.20;0.20;;;12.70;99.90;;;;;;5103763;27;20119;-81
2023/05/23 02:58:08;;;;;;;0.20;0.20;;;12.70;99.90;;;;;;5114049;27;20058;-77
2023/05/23 03:00:34;;;;;;;0.20;0.20;;;12.70;99.90;;;;;;5122714;27;20100;-76
2023/05/23 03:03:00;;;;;;;0.20;0.20;;;12.70;99.90;;;;;;5095226;27;20085;-77
2023/05/23 03:05:26;;;;;;;0.20;0.20;;;12.80;99.90;;;;;;5106045;27;20035;-79
2023/05/23 03:07:53;;;;;;;0.10;0.10;;;12.60;99.90;;;;;;5115376;27;20040;-80
2023/05/23 03:10:19;;;;;;;0.10;0.10;;;12.60;99.90;;;;;;5111192;27;20044;-78
2023/05/23 03:12:45;;;;;;;0.20;0.20;;;12.60;99.90;;;;;;5108355;27;20104;-78
2023/05/23 03:15:11;;;;;;;0.20;0.20;;;12.60;99.90;;;;;;5082289;27;20555;-78
2023/05/23 03:17:39;;;;;;;0.20;0.20;;;12.60;99.90;;;;;;5092235;28;20044;-78
2023/05/23 03:20:08;;;;;;;0.20;0.20;;;12.50;99.90;;;;;;5089278;28;20044;-76
2023/05/23 03:22:35;;;;;;;0.10;0.10;;;12.50;99.90;;;;;;5099881;27;20036;-79
2023/05/23 03:25:00;;;;;;;0.20;0.20;;;12.50;99.90;;;;;;5100857;28;20682;-80
2023/05/23 03:27:26;;;;;;;0.10;0.10;;;12.50;99.90;;;;;;5111561;27;20053;-80
2023/05/23 03:29:52;;;;;;;0.10;0.10;;;12.50;99.90;;;;;;5113639;27;20063;-78
2023/05/23 03:32:17;;;;;;;0.20;0.20;;;12.40;99.90;;;;;;5089713;28;20043;-77
2023/05/23 03:34:43;;;;;;;0.10;0.10;;;12.40;99.90;;;;;;5108405;27;20583;-78
2023/05/23 03:37:09;;;;;;;0.15;0.15;;;12.50;99.90;;;;;;5113428;27;20040;-77
2023/05/23 03:39:40;;;;;;;0.10;0.10;;;12.40;99.90;;;;;;5092230;28;20054;-78
2023/05/23 03:42:06;;;;;;;0.15;0.15;;;12.40;99.90;;;;;;5113306;27;20039;-77
2023/05/23 03:44:32;;;;;;;0.20;0.20;;;12.40;99.90;;;;;;5097368;28;20041;-78
2023/05/23 03:46:57;;;;;;;0.10;0.10;;;12.50;99.90;;;;;;5107863;27;20039;-78
2023/05/23 03:49:23;;;;;;;0.20;0.20;;;12.30;99.90;;;;;;5113544;27;20083;-78
2023/05/23 03:51:49;;;;;;;0.20;0.20;;;12.30;99.90;;;;;;5106601;28;20059;-77
2023/05/23 03:54:16;;;;;;;0.20;0.20;;;12.30;99.90;;;;;;5115490;27;20183;-78
2023/05/23 03:56:42;;;;;;;0.15;0.15;;;12.30;99.90;;;;;;5106755;27;20031;-78
2023/05/23 03:59:08;;;;;;;0.10;0.10;;;12.30;99.90;;;;;;5107555;28;20044;-78
2023/05/23 04:01:34;;;;;;;0.15;0.15;;;12.30;99.90;;;;;;5114495;27;20593;-78
2023/05/23 04:03:59;;;;;;;0.10;0.10;;;12.30;99.90;;;;;;5114965;27;20613;-76
2023/05/23 04:06:26;;;;;;;0.10;0.10;;;12.30;99.90;;;;;;5086369;27;20078;-79
2023/05/23 04:08:51;;;;;;;0.10;0.10;;;12.30;99.90;;;;;;5091337;28;20514;-78
2023/05/23 04:11:17;;;;;;;0.10;0.10;;;12.30;99.90;;;;;;5129229;28;20043;-78
2023/05/23 04:13:45;;;;;;;0.20;0.20;;;12.20;99.90;;;;;;5110167;27;20051;-77
2023/05/23 04:16:11;;;;;;;0.10;0.10;;;12.30;99.90;;;;;;5122136;27;20048;-79
2023/05/23 04:18:37;;;;;;;0.10;0.10;;;12.40;99.90;;;;;;5081654;27;20032;-80
2023/05/23 04:21:03;;;;;;;0.20;0.20;;;12.30;99.90;;;;;;5097749;27;20461;-77
2023/05/23 04:23:35;;;;;;;0.20;0.20;;;12.30;99.90;;;;;;5122485;22;20053;-78
2023/05/23 04:26:01;;;;;;;0.10;0.10;;;12.30;99.90;;;;;;5067268;28;20071;-78
2023/05/23 04:28:26;;;;;;;0.20;0.20;;;12.20;99.90;;;;;;5077803;28;20411;-80
2023/05/23 04:30:52;;;;;;;0.20;0.20;;;12.30;99.90;;;;;;5091521;28;20046;-79
2023/05/23 04:33:22;;;;;;;0.10;0.10;;;;;;;;;;5094714;28;20069;-78
2023/05/23 04:38:48;;;;;;;0.20;0.20;;;12.20;99.90;;;;;;5107894;22;20655;-78
2023/05/23 04:41:15;;;;;;;0.20;0.20;;;12.20;99.90;;;;;;5103210;28;20048;-78
2023/05/23 04:43:46;;;;;;;0.20;0.20;;;12.20;99.90;;;;;;5089052;28;20502;-78
2023/05/23 04:46:12;;;;;;;0.20;0.20;;;12.10;99.90;;;;;;5095418;28;20095;-78
2023/05/23 04:48:59;;;;;;;0.20;0.20;;;12.20;99.90;;;;;;5079205;28;20050;-80
2023/05/23 04:51:46;;;;;;;0.20;0.20;;;12.10;99.90;;;;;;5102503;28;20044;-79
2023/05/23 04:54:11;;;;;;;0.20;0.20;;;12.10;99.90;;;;;;5108201;28;20035;-79
2023/05/23 04:56:58;;;;;;;0.10;0.10;;;12.20;99.90;;;;;;5102516;28;20101;-81
2023/05/23 04:59:24;;;;;;;0.20;0.20;;;12.10;99.90;;;;;;5106740;28;20054;-79
2023/05/23 05:01:50;;;;;;;0.20;0.20;;;12.10;99.90;;;;;;5089762;28;20043;-80
2023/05/23 05:04:35;;;;;;;0.10;0.10;;;12.10;99.90;;;;;;5125174;27;20407;-79
2023/05/23 05:07:03;;;;;;;0.10;0.10;;;11.90;99.90;;;;;;5111004;28;20043;-80
2023/05/23 05:09:30;;;;;;;0.20;0.20;;;12.10;99.90;;;;;;5090984;28;20031;-79
2023/05/23 05:11:57;;;;;;;0.20;0.20;;;12.40;99.90;;;;;;5088100;27;20047;-78
2023/05/23 05:14:26;;;;;;;0.10;0.10;;;12.00;99.90;;;;;;5119229;27;20042;-80
2023/05/23 05:16:56;;;;;;;0.20;0.20;;;11.90;99.90;;;;;;5092751;28;20047;-79
2023/05/23 05:19:25;;;;;;;0.13;0.13;;;11.90;99.90;;;;;;5103619;28;20487;-79
2023/05/23 05:21:54;;;;;;;0.10;0.10;;;11.90;99.90;;;;;;5112375;28;20518;-80
2023/05/23 05:24:28;;;;;;;0.20;0.20;;;11.80;99.90;;;;;;5112313;27;20081;-80
2023/05/23 05:27:03;;;;;;;0.13;0.13;;;11.80;99.90;;;;;;5092063;28;20039;-82
2023/05/23 05:29:30;;;;;;;0.20;0.20;;;11.80;99.90;;;;;;5102910;28;20394;-80
2023/05/23 05:31:55;;;;;;;0.10;0.10;;;11.80;99.90;;;;;;5111964;28;20047;-81
2023/05/23 05:34:21;;;;;;;0.10;0.10;;;11.80;99.90;;;;;;5085755;28;20055;-81
2023/05/23 05:36:47;;;;;;;0.10;0.10;;;11.70;99.90;;;;;;5106943;27;20074;-78
2023/05/23 05:39:13;;;;;;;0.20;0.20;;;11.70;99.90;;;;;;5112591;27;20043;-82
2023/05/23 05:41:39;;;;;;;0.10;0.10;;;11.70;99.90;;;;;;5089670;28;20055;-82
2023/05/23 05:44:06;;;;;;;0.20;0.20;;;11.70;99.90;;;;;;5088402;28;20056;-82
2023/05/23 05:46:31;;;;;;;0.20;0.20;;;11.70;99.90;;;;;;5109624;28;20054;-83
2023/05/23 05:48:57;;;;;;;0.10;0.10;;;11.70;99.90;;;;;;5109646;28;20032;-83
2023/05/23 05:51:23;;;;;;;0.10;0.10;;;11.60;99.90;;;;;;5129104;28;20043;-81
2023/05/23 05:53:48;;;;;;;0.20;0.20;;;11.70;99.90;;;;;;5106765;27;20040;-82
2023/05/23 05:56:14;;;;;;;0.10;0.10;;;11.60;99.90;;;;;;5095887;28;20040;-81
2023/05/23 05:58:40;;;;;;;0.10;0.10;;;11.60;99.90;;;;;;5106584;28;20052;-90
2023/05/23 06:01:05;;;;;;;0.10;0.10;;;11.60;99.90;;;;;;5091177;28;20510;-82
2023/05/23 06:03:32;;;;;;;0.20;0.20;;;11.50;99.90;;;;;;5111043;28;20044;-80
2023/05/23 06:05:58;;;;;;;0.10;0.10;;;11.60;99.90;;;;;;5078233;28;20513;-81
2023/05/23 06:08:24;;;;;;;0.10;0.10;;;11.50;99.90;;;;;;5088651;28;20526;-81
2023/05/23 06:10:50;;;;;;;0.20;0.20;;;11.60;99.90;;;;;;5115757;28;20046;-81
2023/05/23 06:13:16;;;;;;;0.10;0.10;;;11.50;99.90;;;;;;5094146;28;20070;-81
2023/05/23 06:15:42;;;;;;;0.20;0.20;;;11.50;99.90;;;;;;5089147;28;20044;-83
2023/05/23 06:18:08;;;;;;;0.10;0.10;;;11.50;99.90;;;;;;5109181;28;20040;-82
2023/05/23 06:20:33;;;;;;;0.17;0.17;;;11.40;99.90;;;;;;5108359;27;20039;-81
2023/05/23 06:23:00;;;;;;;0.20;0.20;;;11.40;99.90;;;;;;5110814;28;20097;-83
2023/05/23 06:25:26;;;;;;;0.20;0.20;;;11.40;99.90;;;;;;5092645;28;20092;-81
2023/05/23 06:27:52;;;;;;;0.20;0.20;;;11.40;99.90;;;;;;5088871;28;20122;-81
2023/05/23 06:30:19;;;;;;;0.20;0.20;;;11.40;99.90;;;;;;5105730;27;20165;-81
2023/05/23 06:32:45;;;;;;;0.20;0.20;;;11.60;99.90;;;;;;5093340;28;20406;-84
2023/05/23 06:35:10;;;;;;;0.10;0.10;;;11.40;99.90;;;;;;5113554;28;20036;-82
2023/05/23 06:37:36;;;;;;;0.10;0.10;;;11.40;99.90;;;;;;5110264;28;20205;-81
2023/05/23 06:40:02;;;;;;;0.20;0.20;;;11.40;99.90;;;;;;5110219;28;20566;-81
2023/05/23 06:42:28;;;;;;;0.17;0.17;;;11.30;99.90;;;;;;5099418;28;20483;-80
2023/05/23 06:44:56;;;;;;;0.20;0.20;;;11.40;99.90;;;;;;5104086;28;20039;-82
2023/05/23 06:47:22;;;;;;;0.20;0.20;;;11.30;99.90;;;;;;5117995;28;20054;-81
2023/05/23 06:49:47;;;;;;;0.20;0.20;;;11.40;99.90;;;;;;5105301;28;20108;-80
2023/05/23 06:52:13;;;;;;;0.10;0.10;;;11.50;99.90;;;;;;5099983;28;20118;-80
2023/05/23 06:54:39;;;;;;;0.20;0.20;;;11.50;99.90;;;;;;5105071;28;20050;-81
2023/05/23 06:57:05;;;;;;;0.10;0.10;;;11.50;99.90;;;;;;5098271;28;20043;-79
2023/05/23 06:59:30;;;;;;;0.10;0.10;;;11.50;99.90;;;;;;5090334;28;20051;-80
2023/05/23 07:01:56;;;;;;;0.20;0.20;;;11.60;99.90;;;;;;5104162;28;20036;-81
2023/05/23 07:04:21;;;;;;;0.20;0.20;;;11.60;99.90;;;;;;5107527;28;20032;-81
2023/05/23 07:06:47;;;;;;;0.20;0.20;;;11.60;99.90;;;;;;5093688;28;20051;-81
2023/05/23 07:09:13;;;;;;;0.20;0.20;;;11.60;99.90;;;;;;5111565;28;20321;-83
2023/05/23 07:11:39;;;;;;;0.20;0.20;;;11.60;99.90;;;;;;5108034;28;20040;-81
2023/05/23 07:14:06;;;;;;;0.20;0.20;;;11.70;99.90;;;;;;5110221;28;20035;-82
2023/05/23 07:16:32;;;;;;;0.20;0.20;;;11.60;99.90;;;;;;5108406;28;20046;-80
2023/05/23 07:18:58;;;;;;;0.20;0.20;;;11.70;99.90;;;;;;5110555;28;20035;-82
2023/05/23 07:21:23;;;;;;;0.13;0.13;;;11.70;99.90;;;;;;5107451;28;20044;-80
2023/05/23 07:23:49;;;;;;;0.13;0.13;;;11.70;99.90;;;;;;5103761;28;20048;-80
2023/05/23 07:26:17;;;;;;;0.20;0.20;;;11.70;99.90;;;;;;5095965;28;20043;-82
2023/05/23 07:28:43;;;;;;;0.10;0.10;;;11.70;99.90;;;;;;5118459;28;20077;-83
2023/05/23 07:31:09;;;;;;;0.20;0.20;;;11.70;99.90;;;;;;5124332;28;20046;-82
2023/05/23 07:33:34;;;;;;;0.20;0.20;;;11.60;99.90;;;;;;5095957;28;20054;-82
2023/05/23 07:36:00;;;;;;;0.20;0.20;;;11.60;99.90;;;;;;5108291;28;20062;-82
2023/05/23 07:38:28;;;;;;;0.20;0.20;;;11.60;99.90;;;;;;5094039;28;20407;-80
2023/05/23 07:40:54;;;;;;;0.20;0.20;;;11.70;99.90;;;;;;5104071;28;20040;-83
2023/05/23 07:43:23;;;;;;;0.20;0.20;;;11.70;99.90;;;;;;5108465;28;20071;-82
2023/05/23 07:45:48;;;;;;;0.10;0.10;;;11.90;99.90;;;;;;5087803;28;20082;-81
2023/05/23 07:48:16;;;;;;;0.20;0.20;;;11.90;99.90;;;;;;5108339;28;20371;-81
2023/05/23 07:50:43;;;;;;;0.17;0.17;;;11.90;99.90;;;;;;5093703;28;20062;-80
2023/05/23 07:53:11;;;;;;;0.20;0.20;;;11.90;99.90;;;;;;5091732;28;20044;-80
2023/05/23 07:55:36;;;;;;;0.20;0.20;;;11.90;99.90;;;;;;5107018;28;20045;-81
2023/05/23 07:58:02;;;;;;;0.20;0.20;;;12.00;99.90;;;;;;5091498;28;20051;-80
2023/05/23 08:00:28;;;;;;;0.20;0.20;;;12.00;99.90;;;;;;5079066;28;20082;-80
2023/05/23 08:02:53;;;;;;;0.20;0.20;;;12.00;99.90;;;;;;5072562;28;20102;-81
2023/05/23 08:05:22;;;;;;;0.17;0.17;;;12.10;99.90;;;;;;5115358;28;20043;-80
2023/05/23 08:07:53;;;;;;;0.20;0.20;;;12.10;99.90;;;;;;5111469;28;20475;-81
2023/05/23 08:10:18;;;;;;;0.20;0.20;;;12.20;99.90;;;;;;5108930;28;20039;-81
2023/05/23 08:12:44;;;;;;;0.10;0.10;;;12.30;99.90;;;;;;5092211;28;20077;-81
2023/05/23 08:15:10;;;;;;;0.15;0.15;;;12.10;99.90;;;;;;5110123;28;20035;-81
2023/05/23 08:17:36;;;;;;;0.20;0.20;;;12.40;99.90;;;;;;5111635;28;20086;-80
2023/05/23 08:20:03;;;;;;;0.17;0.17;;;12.40;99.90;;;;;;5102914;28;20063;-81
2023/05/23 08:22:29;;;;;;;0.20;0.20;;;12.40;99.90;;;;;;5106629;28;20078;-82
2023/05/23 08:24:55;;;;;;;0.20;0.20;;;12.40;99.90;;;;;;5108343;28;20067;-82
2023/05/23 08:27:20;;;;;;;0.20;0.20;;;12.40;99.90;;;;;;5097851;28;20051;-81
2023/05/23 08:29:49;;;;;;;0.20;0.20;;;12.50;99.90;;;;;;5101789;28;20035;-81
2023/05/23 08:32:14;;;;;;;0.10;0.10;;;12.50;99.90;;;;;;5100598;28;20087;-81
2023/05/23 08:34:40;;;;;;;0.17;0.17;;;12.60;99.90;;;;;;5092634;28;20101;-82
2023/05/23 08:37:08;;;;;;;0.20;0.20;;;12.60;99.90;;;;;;5105047;28;20403;-81
2023/05/23 08:39:34;;;;;;;0.20;0.20;;;12.60;99.90;;;;;;5103179;28;20428;-81
2023/05/23 08:42:03;;;;;;;0.20;0.20;;;12.70;99.90;;;;;;5090154;28;20043;-80
2023/05/23 08:44:28;;;;;;;0.13;0.13;;;12.70;99.90;;;;;;5089142;28;20503;-82
2023/05/23 08:47:04;;;;;;;0.20;0.20;;;12.70;99.90;;;;;;5084357;28;20043;-82
2023/05/23 08:49:30;;;;;;;0.20;0.20;;;12.70;99.90;;;;;;5105319;28;20048;-80
2023/05/23 08:52:02;;;;;;;0.15;0.15;;;12.80;99.90;;;;;;5086237;28;20039;-83
2023/05/23 08:54:29;;;;;;;0.20;0.20;;;12.80;99.90;;;;;;5100070;28;20044;-82
2023/05/23 08:56:55;;;;;;;0.20;0.20;;;12.80;99.90;;;;;;5105777;28;20036;-80
2023/05/23 08:59:22;;;;;;;0.20;0.20;;;12.80;99.90;;;;;;5081852;28;20054;-79
2023/05/23 09:01:50;;;;;;;0.10;0.10;;;12.80;99.90;;;;;;5093781;28;20053;-79
2023/05/23 09:04:16;;;;;;;0.10;0.10;;;12.90;99.90;;;;;;5084240;28;20127;-81
2023/05/23 09:06:42;;;;;;;0.20;0.20;;;12.90;99.90;;;;;;5081594;28;20134;-81
2023/05/23 09:09:10;;;;;;;0.20;0.20;;;12.90;99.90;;;;;;5126701;28;20043;-80
2023/05/23 09:11:36;;;;;;;0.20;0.20;;;12.90;99.90;;;;;;5098662;28;20085;-83
2023/05/23 09:14:03;;;;;;;0.17;0.17;;;12.90;99.90;;;;;;5108202;28;20035;-81
2023/05/23 09:16:33;;;;;;;0.10;0.10;;;12.90;99.90;;;;;;5090144;28;20479;-77
2023/05/23 09:19:08;;;;;;;0.20;0.20;;;12.90;99.90;;;;;;5090447;28;20102;-78
2023/05/23 09:21:34;;;;;;;0.10;0.10;;;12.90;99.90;;;;;;5087095;28;20044;-77
2023/05/23 09:24:01;;;;;;;0.20;0.20;;;12.90;99.90;;;;;;5110438;28;20460;-76
2023/05/23 09:26:27;;;;;;;0.20;0.20;;;12.90;99.90;;;;;;5084079;28;20084;-75
2023/05/23 09:28:58;;;;;;;0.10;0.10;;;13.00;99.90;;;;;;5099233;28;20074;-77
2023/05/23 09:31:27;;;;;;;0.20;0.20;;;13.00;99.90;;;;;;5105389;28;20040;-75
2023/05/23 09:33:52;;;;;;;0.10;0.10;;;13.00;99.90;;;;;;5093108;28;20048;-77
2023/05/23 09:36:18;;;;;;;0.20;0.20;;;12.90;99.90;;;;;;5111647;28;20133;-75
2023/05/23 09:38:45;;;;;;;0.10;0.10;;;12.90;99.90;;;;;;5092994;28;20558;-77
2023/05/23 09:41:12;;;;;;;0.20;0.20;;;12.90;99.90;;;;;;5095324;28;20031;-76
2023/05/23 09:43:39;;;;;;;0.20;0.20;;;12.90;99.90;;;;;;5095093;28;20043;-77
2023/05/23 09:46:09;;;;;;;0.20;0.20;;;13.00;99.90;;;;;;5087910;28;20043;-77
2023/05/23 09:48:35;;;;;;;0.20;0.20;;;13.10;99.90;;;;;;5101161;27;20042;-77
2023/05/23 09:51:05;;;;;;;0.20;0.20;;;13.20;99.90;;;;;;5122269;27;20036;-78
2023/05/23 09:53:31;;;;;;;0.20;0.20;;;13.30;99.90;;;;;;5100027;28;20061;-77
2023/05/23 09:55:59;;;;;;;0.20;0.20;;;13.30;99.90;;;;;;5117660;27;20482;-77
2023/05/23 09:58:31;;;;;;;0.20;0.20;;;13.40;99.90;;;;;;5129463;27;20047;-76
2023/05/23 10:01:02;;;;;;;0.10;0.10;;;13.40;99.90;;;;;;5101242;28;20615;-79
2023/05/23 10:03:44;;;;;;;0.17;0.17;;;13.50;99.90;;;;;;5083442;27;20788;-76
2023/05/23 10:06:19;;;;;;;0.10;0.10;;;13.50;99.90;;;;;;5111600;27;20039;-77
2023/05/23 10:08:54;;;;;;;0.20;0.20;;;13.50;99.90;;;;;;5108656;27;20581;-77
2023/05/23 10:12:04;;;;;;;0.20;0.20;;;13.60;99.90;;;;;;5096783;28;20097;-77
2023/05/23 10:14:34;;;;;;;0.20;0.20;;;13.50;99.90;;;;;;5108833;27;20782;-78
2023/05/23 10:17:19;;;;;;;0.20;0.20;;;13.50;99.90;;;;;;5110273;27;20046;-77
2023/05/23 10:19:57;;;;;;;0.20;0.20;;;13.50;99.90;;;;;;5107795;27;20043;-78
2023/05/23 10:22:26;;;;;;;0.20;0.20;;;13.50;99.90;;;;;;5106605;28;20043;-76
2023/05/23 10:24:53;;;;;;;0.10;0.10;;;13.50;99.90;;;;;;5092773;28;20039;-75
2023/05/23 10:27:18;;;;;;;0.20;0.20;;;13.50;99.90;;;;;;5108131;27;20703;-76
2023/05/23 10:29:44;;;;;;;0.20;0.20;;;13.60;99.90;;;;;;5099800;28;20039;-77
2023/05/23 10:32:13;;;;;;;0.10;0.10;;;13.60;99.90;;;;;;5096388;28;20117;-76
2023/05/23 10:35:06;;;;;;;0.20;0.20;;;13.60;99.90;;;;;;5111548;27;20135;-77
2023/05/23 10:37:41;;;;;;;0.15;0.15;;;13.70;99.90;;;;;;5091956;28;20060;-77
2023/05/23 10:40:13;;;;;;;0.13;0.13;;;13.70;99.90;;;;;;5096799;28;20099;-76
2023/05/23 10:42:54;;;;;;;0.20;0.20;;;13.70;99.90;;;;;;5115266;27;20101;-77
2023/05/23 10:45:21;;;;;;;0.20;0.20;;;13.70;99.90;;;;;;5081039;28;20047;-77
2023/05/23 10:47:49;;;;;;;0.10;0.10;;;13.70;99.90;;;;;;5106158;27;20044;-77
2023/05/23 10:50:36;;;;;;;0.13;0.13;;;13.80;99.90;;;;;;5112909;27;20043;-77
2023/05/23 10:53:04;;;;;;;0.20;0.20;;;13.90;99.90;;;;;;5104294;27;20039;-77
2023/05/23 10:55:35;;;;;;;0.20;0.20;;;14.00;99.90;;;;;;5111038;28;20426;-77
2023/05/23 10:58:20;;;;;;;0.20;0.20;;;14.10;99.90;;;;;;5107963;28;20053;-76
2023/05/23 11:00:56;;;;;;;0.20;0.20;;;14.10;99.90;;;;;;5107525;28;20122;-78
2023/05/23 11:03:34;;;;;;;0.13;0.13;;;14.10;99.90;;;;;;5082326;28;20035;-77
2023/05/23 11:06:03;;;;;;;0.17;0.17;;;14.20;99.90;;;;;;5081578;28;20573;-76
2023/05/23 11:08:37;;;;;;;0.20;0.20;;;14.30;99.90;;;;;;5102560;27;21093;-77
2023/05/23 11:11:06;;;;;;;0.20;0.20;;;14.30;99.90;;;;;;5097650;28;20224;-78
2023/05/23 11:13:54;;;;;;;0.20;0.20;;;14.30;99.90;;;;;;5083828;28;20126;-77
2023/05/23 11:16:33;;;;;;;0.10;0.10;;;14.20;99.90;;;;;;5086891;28;20056;-79
2023/05/23 11:19:17;;;;;;;0.10;0.10;;;14.10;99.90;;;;;;5092819;28;20092;-78
2023/05/23 11:22:10;;;;;;;0.20;0.20;;;14.10;99.90;;;;;;5111832;28;20035;-78
2023/05/23 11:24:50;;;;;;;0.10;0.10;;;14.10;99.90;;;;;;5062152;28;20459;-80
2023/05/23 11:27:24;;;;;;;0.20;0.20;;;14.10;99.90;;;;;;5087747;28;20057;-80
2023/05/23 11:30:07;;;;;;;0.10;0.10;;;14.10;99.90;;;;;;5106620;28;20042;-79
2023/05/23 11:32:39;;;;;;;0.20;0.20;;;14.10;99.90;;;;;;5080093;28;20065;-79
2023/05/23 11:35:07;;;;;;;0.20;0.20;;;14.20;99.90;;;;;;5103457;28;20135;-80
2023/05/23 11:37:39;;;;;;;0.13;0.13;;;14.20;99.90;;;;;;5083030;28;20065;-79
2023/05/23 11:40:28;;;;;;;0.20;0.20;;;14.20;99.90;;;;;;5094959;28;20069;-80
2023/05/23 11:42:54;;;;;;;0.20;0.20;;;14.30;99.90;;;;;;5099499;28;20051;-80
2023/05/23 11:45:24;;;;;;;0.10;0.10;;;14.40;99.90;;;;;;5078031;28;20042;-79
2023/05/23 11:47:50;;;;;;;0.10;0.10;;;14.40;99.90;;;;;;5101809;28;20051;-79
2023/05/23 11:50:16;;;;;;;0.20;0.20;;;14.50;99.90;;;;;;5100032;28;20035;-80
2023/05/23 11:52:50;;;;;;;0.10;0.10;;;14.50;99.90;;;;;;5085780;28;20046;-77
2023/05/23 11:55:18;;;;;;;0.20;0.20;;;14.60;99.90;;;;;;5090819;28;20048;-79
2023/05/23 11:57:45;;;;;;;0.20;0.20;;;14.50;99.90;;;;;;5088208;28;20103;-78
2023/05/23 12:00:11;;;;;;;0.20;0.20;;;14.50;99.90;;;;;;5110691;28;20127;-77
2023/05/23 12:02:55;;;;;;;0.20;0.20;;;14.50;99.90;;;;;;5103519;28;20093;-80
2023/05/23 12:05:20;;;;;;;0.20;0.20;;;14.40;99.90;;;;;;5104994;28;20039;-78
2023/05/23 12:07:47;;;;;;;0.20;0.20;;;14.40;99.90;;;;;;5108406;28;20411;-78
2023/05/23 12:10:15;;;;;;;0.20;0.20;;;14.50;99.90;;;;;;5109946;28;20031;-77
2023/05/23 12:12:44;;;;;;;0.20;0.20;;;14.60;99.90;;;;;;5110014;28;20544;-80
2023/05/23 12:15:14;;;;;;;0.20;0.20;;;14.60;99.90;;;;;;5106832;28;20531;-77
2023/05/23 12:17:49;;;;;;;0.17;0.17;;;14.60;99.90;;;;;;5098353;28;20125;-77
2023/05/23 12:20:15;;;;;;;0.20;0.20;;;14.50;99.90;;;;;;5109255;28;20122;-77
2023/05/23 12:22:41;;;;;;;0.10;0.10;;;14.60;99.90;;;;;;5110466;28;20134;-78
2023/05/23 12:25:16;;;;;;;0.17;0.17;;;14.70;99.90;;;;;;5113940;28;20070;-80
2023/05/23 12:27:42;;;;;;;0.20;0.20;;;14.80;99.90;;;;;;5098831;28;20040;-79
2023/05/23 12:30:15;;;;;;;0.20;0.20;;;14.90;99.90;;;;;;5105526;28;20055;-78
2023/05/23 12:32:45;;;;;;;0.20;0.20;;;14.90;99.90;;;;;;5110361;28;20707;-77
2023/05/23 12:35:13;;;;;;;0.20;0.20;;;14.80;99.90;;;;;;5106752;28;20048;-79
2023/05/23 12:37:40;;;;;;;0.20;0.20;;;14.60;99.90;;;;;;5109547;28;20052;-77
2023/05/23 12:40:11;;;;;;;0.20;0.20;;;14.60;99.90;;;;;;5115463;28;20056;-79
2023/05/23 12:42:53;;;;;;;0.20;0.20;;;14.70;99.90;;;;;;5092529;28;20383;-77
2023/05/23 12:45:20;;;;;;;0.20;0.20;;;14.90;99.90;;;;;;5104957;28;20872;-80
2023/05/23 12:47:45;;;;;;;0.20;0.20;;;15.00;99.90;;;;;;5107978;28;20039;-80
2023/05/23 12:50:12;;;;;;;0.20;0.20;;;15.10;99.90;;;;;;5091113;28;20073;-79
2023/05/23 12:52:38;;;;;;;0.20;0.20;;;15.10;99.90;;;;;;5110125;28;20042;-80
2023/05/23 12:55:05;;;;;;;0.20;0.20;;;15.10;99.90;;;;;;5091098;28;20052;-78
2023/05/23 12:57:33;;;;;;;0.20;0.20;;;15.10;99.90;;;;;;5106484;28;20044;-79
2023/05/23 12:59:58;;;;;;;0.20;0.20;;;15.00;99.90;;;;;;5091215;28;20052;-78
2023/05/23 13:02:24;;;;;;;0.20;0.20;;;15.00;99.90;;;;;;5083601;28;20181;-78